sensor_id;sensor_type;location;lat;lon;timestamp;pressure;altitude;pressure_sealevel;temperature;humidity
44148;BME280;29810;55.848;37.368;2022-07-29T00:02:28;99185.44;;;15.34;88.76
44148;BME280;29810;55.848;37.368;2022-07-29T00:05:30;99183.25;;;15.27;88.95
44148;BME280;29810;55.848;37.368;2022-07-29T00:08:31;99184.34;;;15.22;89.16
44148;BME280;29810;55.848;37.368;2022-07-29T00:11:33;99187.91;;;15.21;89.20
44148;BME280;29810;55.848;37.368;2022-07-29T00:14:34;99199.44;;;15.19;88.90
44148;BME280;29810;55.848;37.368;2022-07-29T00:17:36;99187.91;;;15.21;89.04
44148;BME280;29810;55.848;37.368;2022-07-29T00:20:37;99191.84;;;15.29;88.86
44148;BME280;29810;55.848;37.368;2022-07-29T00:23:39;99193.84;;;15.25;88.44
44148;BME280;29810;55.848;37.368;2022-07-29T00:26:41;99193.06;;;15.23;88.40
44148;BME280;29810;55.848;37.368;2022-07-29T00:29:42;99204.41;;;15.23;88.51
44148;BME280;29810;55.848;37.368;2022-07-29T00:32:44;99203.06;;;15.16;88.29
44148;BME280;29810;55.848;37.368;2022-07-29T00:35:46;99206.63;;;15.15;88.42
44148;BME280;29810;55.848;37.368;2022-07-29T00:38:48;99201.72;;;15.09;88.50
44148;BME280;29810;55.848;37.368;2022-07-29T00:41:50;99201.88;;;15.06;88.69
44148;BME280;29810;55.848;37.368;2022-07-29T00:44:51;99199.00;;;14.95;89.00
44148;BME280;29810;55.848;37.368;2022-07-29T00:47:53;99202.56;;;14.94;89.27
44148;BME280;29810;55.848;37.368;2022-07-29T00:50:56;99208.81;;;14.91;89.20
44148;BME280;29810;55.848;37.368;2022-07-29T00:53:58;99210.78;;;14.87;89.66
44148;BME280;29810;55.848;37.368;2022-07-29T00:57:00;99211.03;;;14.83;89.68
44148;BME280;29810;55.848;37.368;2022-07-29T01:00:04;99222.72;;;14.77;90.58
44148;BME280;29810;55.848;37.368;2022-07-29T01:03:07;99211.69;;;14.70;90.49
44148;BME280;29810;55.848;37.368;2022-07-29T01:06:09;99208.91;;;14.73;90.93
44148;BME280;29810;55.848;37.368;2022-07-29T01:09:11;99216.78;;;14.73;90.99
44148;BME280;29810;55.848;37.368;2022-07-29T01:12:17;99224.91;;;14.69;90.99
44148;BME280;29810;55.848;37.368;2022-07-29T01:15:20;99217.31;;;14.63;91.34
44148;BME280;29810;55.848;37.368;2022-07-29T01:18:30;99220.09;;;14.60;91.59
44148;BME280;29810;55.848;37.368;2022-07-29T01:21:55;99212.41;;;14.56;92.96
44148;BME280;29810;55.848;37.368;2022-07-29T01:32:13;99217.56;;;14.58;93.00
44148;BME280;29810;55.848;37.368;2022-07-29T01:35:23;99220.44;;;14.53;92.32
44148;BME280;29810;55.848;37.368;2022-07-29T01:38:27;99216.63;;;14.43;92.97
44148;BME280;29810;55.848;37.368;2022-07-29T01:41:32;99221.19;;;14.55;92.60
44148;BME280;29810;55.848;37.368;2022-07-29T01:44:41;99213.50;;;14.52;93.01
44148;BME280;29810;55.848;37.368;2022-07-29T01:48:05;99229.84;;;14.57;93.13
44148;BME280;29810;55.848;37.368;2022-07-29T01:51:14;99226.75;;;14.67;93.78
44148;BME280;29810;55.848;37.368;2022-07-29T01:54:37;99218.09;;;14.65;93.13
44148;BME280;29810;55.848;37.368;2022-07-29T01:57:42;99226.94;;;14.64;93.03
44148;BME280;29810;55.848;37.368;2022-07-29T02:00:46;99227.69;;;14.66;92.81
44148;BME280;29810;55.848;37.368;2022-07-29T02:03:50;99227.19;;;14.75;92.65
44148;BME280;29810;55.848;37.368;2022-07-29T02:06:54;99232.63;;;15.04;91.79
44148;BME280;29810;55.848;37.368;2022-07-29T02:10:00;99229.47;;;15.13;90.76
44148;BME280;29810;55.848;37.368;2022-07-29T02:13:05;99222.81;;;15.70;89.47
44148;BME280;29810;55.848;37.368;2022-07-29T02:16:09;99207.19;;;17.13;82.36
44148;BME280;29810;55.848;37.368;2022-07-29T02:19:12;99214.38;;;18.81;76.26
44148;BME280;29810;55.848;37.368;2022-07-29T02:22:16;99208.75;;;20.07;69.84
44148;BME280;29810;55.848;37.368;2022-07-29T02:25:21;99201.13;;;21.27;63.69
44148;BME280;29810;55.848;37.368;2022-07-29T02:28:27;99198.81;;;22.30;59.10
44148;BME280;29810;55.848;37.368;2022-07-29T02:31:33;99200.66;;;23.11;56.42
44148;BME280;29810;55.848;37.368;2022-07-29T02:34:37;99186.28;;;23.62;53.26
44148;BME280;29810;55.848;37.368;2022-07-29T02:37:43;99193.78;;;22.58;55.00
44148;BME280;29810;55.848;37.368;2022-07-29T02:40:46;99208.78;;;20.41;61.14
44148;BME280;29810;55.848;37.368;2022-07-29T02:43:54;99209.63;;;18.86;66.68
44148;BME280;29810;55.848;37.368;2022-07-29T02:47:16;99216.31;;;18.02;70.77
44148;BME280;29810;55.848;37.368;2022-07-29T02:50:25;99219.88;;;17.48;73.78
44148;BME280;29810;55.848;37.368;2022-07-29T02:53:33;99220.72;;;16.94;74.85
44148;BME280;29810;55.848;37.368;2022-07-29T02:56:36;99218.13;;;16.78;76.01
44148;BME280;29810;55.848;37.368;2022-07-29T02:59:43;99221.66;;;16.64;76.81
44148;BME280;29810;55.848;37.368;2022-07-29T03:02:50;99220.22;;;16.58;77.41
44148;BME280;29810;55.848;37.368;2022-07-29T03:05:57;99207.69;;;17.05;76.16
44148;BME280;29810;55.848;37.368;2022-07-29T03:08:59;99196.88;;;19.77;65.98
44148;BME280;29810;55.848;37.368;2022-07-29T03:12:01;99188.91;;;22.63;56.00
44148;BME280;29810;55.848;37.368;2022-07-29T03:15:04;99184.13;;;24.53;49.04
44148;BME280;29810;55.848;37.368;2022-07-29T03:18:06;99169.94;;;26.24;45.06
44148;BME280;29810;55.848;37.368;2022-07-29T03:21:09;99168.78;;;27.37;41.36
44148;BME280;29810;55.848;37.368;2022-07-29T03:24:27;99168.44;;;28.15;39.66
44148;BME280;29810;55.848;37.368;2022-07-29T03:27:30;99180.47;;;28.27;39.88
44148;BME280;29810;55.848;37.368;2022-07-29T03:30:32;99169.28;;;28.07;38.33
44148;BME280;29810;55.848;37.368;2022-07-29T03:33:33;99173.97;;;27.88;38.49
44148;BME280;29810;55.848;37.368;2022-07-29T03:36:35;99173.75;;;29.34;36.76
44148;BME280;29810;55.848;37.368;2022-07-29T03:39:40;99157.75;;;30.32;34.32
44148;BME280;29810;55.848;37.368;2022-07-29T03:42:43;99156.94;;;30.98;33.33
44148;BME280;29810;55.848;37.368;2022-07-29T03:45:49;99152.56;;;30.60;32.85
44148;BME280;29810;55.848;37.368;2022-07-29T03:48:52;99159.22;;;31.01;32.84
44148;BME280;29810;55.848;37.368;2022-07-29T03:51:57;99152.00;;;33.74;33.07
44148;BME280;29810;55.848;37.368;2022-07-29T03:54:58;99161.63;;;32.81;29.84
44148;BME280;29810;55.848;37.368;2022-07-29T03:58:00;99169.38;;;32.97;29.85
44148;BME280;29810;55.848;37.368;2022-07-29T04:01:03;99158.25;;;33.41;29.20
44148;BME280;29810;55.848;37.368;2022-07-29T04:04:05;99161.97;;;33.33;28.48
44148;BME280;29810;55.848;37.368;2022-07-29T04:07:06;99169.47;;;33.91;28.30
44148;BME280;29810;55.848;37.368;2022-07-29T04:10:08;99166.94;;;34.23;27.39
44148;BME280;29810;55.848;37.368;2022-07-29T04:13:09;99179.25;;;33.86;27.23
44148;BME280;29810;55.848;37.368;2022-07-29T04:16:11;99169.06;;;33.41;28.27
44148;BME280;29810;55.848;37.368;2022-07-29T04:19:13;99170.63;;;34.49;26.77
44148;BME280;29810;55.848;37.368;2022-07-29T04:22:14;99179.44;;;33.97;27.13
44148;BME280;29810;55.848;37.368;2022-07-29T04:25:16;99188.84;;;32.44;29.04
44148;BME280;29810;55.848;37.368;2022-07-29T04:28:17;99189.03;;;32.36;28.95
44148;BME280;29810;55.848;37.368;2022-07-29T04:31:19;99185.50;;;31.79;30.00
44148;BME280;29810;55.848;37.368;2022-07-29T04:34:20;99188.38;;;32.06;29.21
44148;BME280;29810;55.848;37.368;2022-07-29T04:37:22;99195.19;;;31.51;30.51
44148;BME280;29810;55.848;37.368;2022-07-29T04:40:24;99187.06;;;32.58;29.08
44148;BME280;29810;55.848;37.368;2022-07-29T04:43:25;99181.19;;;34.57;26.58
44148;BME280;29810;55.848;37.368;2022-07-29T04:46:27;99193.78;;;33.98;26.46
44148;BME280;29810;55.848;37.368;2022-07-29T04:49:28;99200.50;;;32.16;29.09
44148;BME280;29810;55.848;37.368;2022-07-29T04:52:30;99207.63;;;33.14;28.25
44148;BME280;29810;55.848;37.368;2022-07-29T04:55:32;99198.75;;;34.93;26.11
44148;BME280;29810;55.848;37.368;2022-07-29T04:58:34;99198.88;;;36.01;24.66
44148;BME280;29810;55.848;37.368;2022-07-29T05:01:36;99193.37;;;37.01;23.46
44148;BME280;29810;55.848;37.368;2022-07-29T05:04:37;99188.97;;;37.30;22.92
44148;BME280;29810;55.848;37.368;2022-07-29T05:07:39;99196.47;;;37.04;22.94
44148;BME280;29810;55.848;37.368;2022-07-29T05:10:41;99190.94;;;37.11;22.66
44148;BME280;29810;55.848;37.368;2022-07-29T05:13:42;99204.84;;;37.33;22.64
44148;BME280;29810;55.848;37.368;2022-07-29T05:16:44;99202.47;;;35.38;24.44
44148;BME280;29810;55.848;37.368;2022-07-29T05:19:45;99203.81;;;34.76;25.55
44148;BME280;29810;55.848;37.368;2022-07-29T05:22:47;99189.06;;;36.19;23.92
44148;BME280;29810;55.848;37.368;2022-07-29T05:25:49;99203.63;;;36.80;23.21
44148;BME280;29810;55.848;37.368;2022-07-29T05:28:51;99195.66;;;35.60;24.15
44148;BME280;29810;55.848;37.368;2022-07-29T05:31:52;99203.72;;;36.73;23.31
44148;BME280;29810;55.848;37.368;2022-07-29T05:34:54;99196.56;;;36.60;23.05
44148;BME280;29810;55.848;37.368;2022-07-29T05:37:55;99197.38;;;35.80;24.11
44148;BME280;29810;55.848;37.368;2022-07-29T05:40:58;99202.22;;;35.46;24.40
44148;BME280;29810;55.848;37.368;2022-07-29T05:44:00;99215.66;;;34.89;25.06
44148;BME280;29810;55.848;37.368;2022-07-29T05:47:02;99213.50;;;33.31;27.09
44148;BME280;29810;55.848;37.368;2022-07-29T05:50:03;99198.59;;;33.96;25.70
44148;BME280;29810;55.848;37.368;2022-07-29T05:53:05;99216.84;;;33.40;26.24
44148;BME280;29810;55.848;37.368;2022-07-29T05:56:07;99213.72;;;32.40;27.32
44148;BME280;29810;55.848;37.368;2022-07-29T05:59:09;99222.25;;;29.01;32.50
44148;BME280;29810;55.848;37.368;2022-07-29T06:02:10;99229.91;;;28.81;33.90
44148;BME280;29810;55.848;37.368;2022-07-29T06:05:12;99218.69;;;30.84;30.90
44148;BME280;29810;55.848;37.368;2022-07-29T06:08:14;99200.22;;;33.43;26.67
44148;BME280;29810;55.848;37.368;2022-07-29T06:11:17;99199.19;;;33.71;26.04
44148;BME280;29810;55.848;37.368;2022-07-29T06:14:19;99208.66;;;31.51;28.48
44148;BME280;29810;55.848;37.368;2022-07-29T06:17:21;99208.22;;;31.26;29.33
44148;BME280;29810;55.848;37.368;2022-07-29T06:20:22;99203.84;;;31.68;28.61
44148;BME280;29810;55.848;37.368;2022-07-29T06:23:24;99207.00;;;32.00;28.35
44148;BME280;29810;55.848;37.368;2022-07-29T06:26:25;99203.56;;;31.20;28.96
44148;BME280;29810;55.848;37.368;2022-07-29T06:29:27;99207.81;;;30.18;30.70
44148;BME280;29810;55.848;37.368;2022-07-29T06:32:29;99207.78;;;28.79;32.89
44148;BME280;29810;55.848;37.368;2022-07-29T06:35:35;99212.97;;;27.66;34.41
44148;BME280;29810;55.848;37.368;2022-07-29T06:38:37;99228.78;;;26.41;36.68
44148;BME280;29810;55.848;37.368;2022-07-29T06:41:39;99222.66;;;24.68;41.01
44148;BME280;29810;55.848;37.368;2022-07-29T06:44:43;99215.81;;;24.08;42.58
44148;BME280;29810;55.848;37.368;2022-07-29T06:47:45;99219.88;;;24.03;42.89
44148;BME280;29810;55.848;37.368;2022-07-29T06:50:46;99217.94;;;23.75;42.91
44148;BME280;29810;55.848;37.368;2022-07-29T06:53:48;99217.28;;;23.03;44.21
44148;BME280;29810;55.848;37.368;2022-07-29T06:56:50;99223.94;;;23.48;43.60
44148;BME280;29810;55.848;37.368;2022-07-29T06:59:52;99225.63;;;23.39;43.22
44148;BME280;29810;55.848;37.368;2022-07-29T07:02:53;99232.13;;;23.06;43.62
44148;BME280;29810;55.848;37.368;2022-07-29T07:05:56;99231.75;;;23.30;42.98
44148;BME280;29810;55.848;37.368;2022-07-29T07:08:58;99225.47;;;23.31;42.96
44148;BME280;29810;55.848;37.368;2022-07-29T07:12:00;99227.31;;;22.28;43.18
44148;BME280;29810;55.848;37.368;2022-07-29T07:15:02;99223.41;;;22.32;43.46
44148;BME280;29810;55.848;37.368;2022-07-29T07:18:06;99228.59;;;22.12;44.16
44148;BME280;29810;55.848;37.368;2022-07-29T07:21:07;99230.03;;;21.95;44.16
44148;BME280;29810;55.848;37.368;2022-07-29T07:24:09;99232.63;;;22.07;44.47
44148;BME280;29810;55.848;37.368;2022-07-29T07:27:10;99230.50;;;22.00;44.65
44148;BME280;29810;55.848;37.368;2022-07-29T07:30:12;99222.78;;;22.19;44.54
44148;BME280;29810;55.848;37.368;2022-07-29T07:33:14;99234.13;;;22.42;44.30
44148;BME280;29810;55.848;37.368;2022-07-29T07:36:16;99228.53;;;22.45;43.74
44148;BME280;29810;55.848;37.368;2022-07-29T07:39:18;99233.72;;;22.77;42.92
44148;BME280;29810;55.848;37.368;2022-07-29T07:42:20;99231.34;;;22.43;44.21
44148;BME280;29810;55.848;37.368;2022-07-29T07:45:22;99230.50;;;22.43;44.75
44148;BME280;29810;55.848;37.368;2022-07-29T07:48:24;99242.09;;;22.73;44.85
44148;BME280;29810;55.848;37.368;2022-07-29T07:51:26;99241.69;;;22.77;44.11
44148;BME280;29810;55.848;37.368;2022-07-29T07:54:28;99234.06;;;22.94;40.96
44148;BME280;29810;55.848;37.368;2022-07-29T07:57:29;99235.97;;;22.82;42.27
44148;BME280;29810;55.848;37.368;2022-07-29T08:00:31;99243.22;;;22.70;42.80
44148;BME280;29810;55.848;37.368;2022-07-29T08:03:34;99237.69;;;22.52;43.62
44148;BME280;29810;55.848;37.368;2022-07-29T08:06:36;99243.22;;;22.28;44.47
44148;BME280;29810;55.848;37.368;2022-07-29T08:09:38;99252.09;;;22.59;44.32
44148;BME280;29810;55.848;37.368;2022-07-29T08:12:39;99249.44;;;22.90;43.79
44148;BME280;29810;55.848;37.368;2022-07-29T08:15:41;99247.66;;;22.70;44.17
44148;BME280;29810;55.848;37.368;2022-07-29T08:18:45;99249.94;;;22.43;43.96
44148;BME280;29810;55.848;37.368;2022-07-29T08:21:48;99242.06;;;22.63;43.68
44148;BME280;29810;55.848;37.368;2022-07-29T08:24:49;99250.66;;;22.45;43.66
44148;BME280;29810;55.848;37.368;2022-07-29T08:27:55;99245.81;;;23.01;42.67
44148;BME280;29810;55.848;37.368;2022-07-29T08:30:57;99238.37;;;23.65;41.22
44148;BME280;29810;55.848;37.368;2022-07-29T08:33:59;99240.63;;;23.50;41.91
44148;BME280;29810;55.848;37.368;2022-07-29T08:37:01;99259.38;;;23.29;40.96
44148;BME280;29810;55.848;37.368;2022-07-29T08:40:03;99240.53;;;22.39;41.28
44148;BME280;29810;55.848;37.368;2022-07-29T08:43:06;99250.25;;;21.87;42.81
44148;BME280;29810;55.848;37.368;2022-07-29T08:46:08;99237.28;;;22.14;43.22
44148;BME280;29810;55.848;37.368;2022-07-29T08:49:10;99244.63;;;21.80;42.38
44148;BME280;29810;55.848;37.368;2022-07-29T08:52:12;99246.72;;;21.65;41.52
44148;BME280;29810;55.848;37.368;2022-07-29T08:55:15;99246.28;;;21.81;41.26
44148;BME280;29810;55.848;37.368;2022-07-29T08:58:17;99240.16;;;22.44;40.95
44148;BME280;29810;55.848;37.368;2022-07-29T09:01:24;99247.28;;;23.15;40.19
44148;BME280;29810;55.848;37.368;2022-07-29T09:04:30;99248.44;;;23.42;40.74
44148;BME280;29810;55.848;37.368;2022-07-29T09:07:33;99234.44;;;23.49;40.12
44148;BME280;29810;55.848;37.368;2022-07-29T09:10:35;99242.72;;;24.05;39.27
44148;BME280;29810;55.848;37.368;2022-07-29T09:13:37;99234.34;;;24.47;38.39
44148;BME280;29810;55.848;37.368;2022-07-29T09:16:55;99245.13;;;24.56;38.19
44148;BME280;29810;55.848;37.368;2022-07-29T09:20:08;99234.41;;;24.75;38.12
44148;BME280;29810;55.848;37.368;2022-07-29T09:23:12;99229.50;;;24.99;38.05
44148;BME280;29810;55.848;37.368;2022-07-29T09:26:14;99221.38;;;24.72;37.62
44148;BME280;29810;55.848;37.368;2022-07-29T09:29:22;99238.84;;;24.37;38.28
44148;BME280;29810;55.848;37.368;2022-07-29T09:32:24;99232.81;;;24.45;37.46
44148;BME280;29810;55.848;37.368;2022-07-29T09:35:28;99235.81;;;24.32;38.73
44148;BME280;29810;55.848;37.368;2022-07-29T09:38:32;99233.16;;;24.70;38.38
44148;BME280;29810;55.848;37.368;2022-07-29T09:44:50;99249.91;;;24.42;38.10
44148;BME280;29810;55.848;37.368;2022-07-29T09:47:52;99254.22;;;23.76;38.30
44148;BME280;29810;55.848;37.368;2022-07-29T09:50:53;99253.47;;;23.35;36.97
44148;BME280;29810;55.848;37.368;2022-07-29T09:53:56;99248.72;;;23.29;36.56
44148;BME280;29810;55.848;37.368;2022-07-29T09:56:57;99253.31;;;23.17;36.74
44148;BME280;29810;55.848;37.368;2022-07-29T10:00:09;99258.50;;;23.19;37.11
44148;BME280;29810;55.848;37.368;2022-07-29T10:03:14;99263.25;;;23.25;37.05
44148;BME280;29810;55.848;37.368;2022-07-29T10:06:16;99256.13;;;23.35;37.57
44148;BME280;29810;55.848;37.368;2022-07-29T10:09:18;99242.28;;;23.41;37.47
44148;BME280;29810;55.848;37.368;2022-07-29T10:12:20;99249.03;;;24.04;37.00
44148;BME280;29810;55.848;37.368;2022-07-29T10:15:24;99245.41;;;24.53;35.71
44148;BME280;29810;55.848;37.368;2022-07-29T10:18:26;99243.97;;;24.11;36.52
44148;BME280;29810;55.848;37.368;2022-07-29T10:21:28;99248.00;;;24.25;36.26
44148;BME280;29810;55.848;37.368;2022-07-29T10:24:32;99238.84;;;24.37;36.01
44148;BME280;29810;55.848;37.368;2022-07-29T10:27:35;99246.03;;;24.37;36.42
44148;BME280;29810;55.848;37.368;2022-07-29T10:30:37;99246.44;;;24.42;35.72
44148;BME280;29810;55.848;37.368;2022-07-29T10:37:03;99232.47;;;24.95;35.45
44148;BME280;29810;55.848;37.368;2022-07-29T10:40:22;99240.06;;;25.64;35.10
44148;BME280;29810;55.848;37.368;2022-07-29T10:43:46;99241.00;;;24.71;36.09
44148;BME280;29810;55.848;37.368;2022-07-29T10:46:49;99234.03;;;24.70;36.23
44148;BME280;29810;55.848;37.368;2022-07-29T10:50:11;99227.94;;;25.06;35.54
44148;BME280;29810;55.848;37.368;2022-07-29T10:53:13;99225.94;;;25.36;35.71
44148;BME280;29810;55.848;37.368;2022-07-29T10:56:26;99226.66;;;25.28;35.55
44148;BME280;29810;55.848;37.368;2022-07-29T10:59:28;99233.78;;;25.37;35.29
44148;BME280;29810;55.848;37.368;2022-07-29T11:05:56;99241.75;;;23.47;39.02
44148;BME280;29810;55.848;37.368;2022-07-29T11:09:18;99242.97;;;23.24;39.82
44148;BME280;29810;55.848;37.368;2022-07-29T11:15:56;99249.28;;;23.42;40.73
44148;BME280;29810;55.848;37.368;2022-07-29T11:19:19;99246.47;;;23.24;41.11
44148;BME280;29810;55.848;37.368;2022-07-29T11:22:34;99240.50;;;23.01;41.69
44148;BME280;29810;55.848;37.368;2022-07-29T11:25:36;99247.37;;;22.63;42.49
44148;BME280;29810;55.848;37.368;2022-07-29T11:28:51;99240.84;;;22.77;42.13
44148;BME280;29810;55.848;37.368;2022-07-29T11:31:53;99243.06;;;23.12;42.14
44148;BME280;29810;55.848;37.368;2022-07-29T11:35:20;99214.97;;;23.29;40.59
44148;BME280;29810;55.848;37.368;2022-07-29T11:38:26;99239.09;;;23.67;40.70
44148;BME280;29810;55.848;37.368;2022-07-29T11:41:28;99232.78;;;23.68;39.63
44148;BME280;29810;55.848;37.368;2022-07-29T11:48:00;99240.88;;;23.86;40.40
44148;BME280;29810;55.848;37.368;2022-07-29T11:51:09;99243.69;;;23.65;40.32
44148;BME280;29810;55.848;37.368;2022-07-29T11:54:13;99247.06;;;23.57;40.44
44148;BME280;29810;55.848;37.368;2022-07-29T11:57:19;99240.34;;;23.73;40.13
44148;BME280;29810;55.848;37.368;2022-07-29T12:00:32;99240.34;;;24.02;39.54
44148;BME280;29810;55.848;37.368;2022-07-29T12:03:34;99233.50;;;24.47;39.19
44148;BME280;29810;55.848;37.368;2022-07-29T12:06:36;99225.41;;;24.76;38.75
44148;BME280;29810;55.848;37.368;2022-07-29T12:09:38;99232.78;;;24.55;38.17
44148;BME280;29810;55.848;37.368;2022-07-29T12:12:39;99236.44;;;24.06;38.87
44148;BME280;29810;55.848;37.368;2022-07-29T12:15:41;99224.09;;;23.86;38.79
44148;BME280;29810;55.848;37.368;2022-07-29T12:18:55;99220.59;;;24.52;38.51
44148;BME280;29810;55.848;37.368;2022-07-29T12:21:57;99187.38;;;25.02;37.76
44148;BME280;29810;55.848;37.368;2022-07-29T12:25:11;99220.38;;;25.01;37.49
44148;BME280;29810;55.848;37.368;2022-07-29T12:28:16;99219.59;;;24.91;37.47
44148;BME280;29810;55.848;37.368;2022-07-29T12:31:19;99214.44;;;25.07;36.96
44148;BME280;29810;55.848;37.368;2022-07-29T12:34:23;99206.69;;;25.32;36.22
44148;BME280;29810;55.848;37.368;2022-07-29T12:37:25;99211.38;;;25.48;35.88
44148;BME280;29810;55.848;37.368;2022-07-29T12:40:27;99204.28;;;25.57;35.47
44148;BME280;29810;55.848;37.368;2022-07-29T12:43:29;99202.75;;;25.36;35.96
44148;BME280;29810;55.848;37.368;2022-07-29T12:46:31;99199.00;;;25.29;36.29
44148;BME280;29810;55.848;37.368;2022-07-29T12:49:32;99197.75;;;24.87;36.32
44148;BME280;29810;55.848;37.368;2022-07-29T12:52:34;99209.47;;;24.57;36.48
44148;BME280;29810;55.848;37.368;2022-07-29T12:55:55;99205.56;;;24.61;36.25
44148;BME280;29810;55.848;37.368;2022-07-29T12:58:57;99215.09;;;24.91;35.37
44148;BME280;29810;55.848;37.368;2022-07-29T13:01:59;99197.66;;;24.41;36.45
44148;BME280;29810;55.848;37.368;2022-07-29T13:05:01;99211.41;;;24.74;36.50
44148;BME280;29810;55.848;37.368;2022-07-29T13:08:12;99217.16;;;24.70;35.67
44148;BME280;29810;55.848;37.368;2022-07-29T13:11:33;99217.28;;;24.40;35.97
44148;BME280;29810;55.848;37.368;2022-07-29T13:14:40;99214.31;;;24.43;36.70
44148;BME280;29810;55.848;37.368;2022-07-29T13:17:43;99212.03;;;24.58;36.51
44148;BME280;29810;55.848;37.368;2022-07-29T13:20:44;99219.69;;;24.71;36.27
44148;BME280;29810;55.848;37.368;2022-07-29T13:23:46;99207.25;;;24.90;34.91
44148;BME280;29810;55.848;37.368;2022-07-29T13:26:47;99206.06;;;24.74;35.43
44148;BME280;29810;55.848;37.368;2022-07-29T13:29:50;99216.69;;;24.46;36.06
44148;BME280;29810;55.848;37.368;2022-07-29T13:32:54;99216.94;;;24.63;36.17
44148;BME280;29810;55.848;37.368;2022-07-29T13:35:56;99208.16;;;24.80;35.34
44148;BME280;29810;55.848;37.368;2022-07-29T13:38:57;99200.53;;;25.13;35.31
44148;BME280;29810;55.848;37.368;2022-07-29T13:41:59;99197.97;;;25.40;35.03
44148;BME280;29810;55.848;37.368;2022-07-29T13:45:01;99196.50;;;25.45;34.71
44148;BME280;29810;55.848;37.368;2022-07-29T13:48:05;99210.34;;;25.31;35.12
44148;BME280;29810;55.848;37.368;2022-07-29T13:51:07;99215.53;;;24.87;36.04
44148;BME280;29810;55.848;37.368;2022-07-29T13:54:09;99213.97;;;24.56;37.12
44148;BME280;29810;55.848;37.368;2022-07-29T13:57:11;99215.25;;;24.52;37.00
44148;BME280;29810;55.848;37.368;2022-07-29T14:00:13;99217.00;;;24.71;36.58
44148;BME280;29810;55.848;37.368;2022-07-29T14:03:16;99213.28;;;24.64;35.38
44148;BME280;29810;55.848;37.368;2022-07-29T14:06:18;99212.59;;;24.05;36.53
44148;BME280;29810;55.848;37.368;2022-07-29T14:09:20;99210.66;;;23.97;37.07
44148;BME280;29810;55.848;37.368;2022-07-29T14:12:23;99218.00;;;24.33;36.68
44148;BME280;29810;55.848;37.368;2022-07-29T14:15:25;99214.88;;;24.37;36.87
44148;BME280;29810;55.848;37.368;2022-07-29T14:18:26;99207.66;;;24.20;37.17
44148;BME280;29810;55.848;37.368;2022-07-29T14:21:28;99205.72;;;24.12;37.85
44148;BME280;29810;55.848;37.368;2022-07-29T14:24:32;99202.94;;;24.04;37.81
44148;BME280;29810;55.848;37.368;2022-07-29T14:27:34;99201.41;;;24.01;38.17
44148;BME280;29810;55.848;37.368;2022-07-29T14:30:35;99206.28;;;23.86;38.57
44148;BME280;29810;55.848;37.368;2022-07-29T14:33:37;99200.16;;;23.76;38.76
44148;BME280;29810;55.848;37.368;2022-07-29T14:36:39;99204.19;;;23.70;39.53
44148;BME280;29810;55.848;37.368;2022-07-29T14:39:41;99197.50;;;23.76;39.07
44148;BME280;29810;55.848;37.368;2022-07-29T14:42:42;99199.31;;;23.95;38.73
44148;BME280;29810;55.848;37.368;2022-07-29T14:45:44;99189.81;;;24.30;38.30
44148;BME280;29810;55.848;37.368;2022-07-29T14:48:45;99194.78;;;24.53;38.05
44148;BME280;29810;55.848;37.368;2022-07-29T14:51:47;99190.81;;;24.57;37.89
44148;BME280;29810;55.848;37.368;2022-07-29T14:54:48;99199.22;;;24.62;37.89
44148;BME280;29810;55.848;37.368;2022-07-29T14:57:50;99196.06;;;24.48;38.29
44148;BME280;29810;55.848;37.368;2022-07-29T15:00:52;99204.06;;;24.48;38.50
44148;BME280;29810;55.848;37.368;2022-07-29T15:03:53;99200.06;;;24.25;38.85
44148;BME280;29810;55.848;37.368;2022-07-29T15:06:55;99204.16;;;24.09;39.18
44148;BME280;29810;55.848;37.368;2022-07-29T15:09:57;99208.13;;;23.95;39.53
44148;BME280;29810;55.848;37.368;2022-07-29T15:12:58;99207.84;;;23.79;39.93
44148;BME280;29810;55.848;37.368;2022-07-29T15:16:00;99213.88;;;23.71;40.18
44148;BME280;29810;55.848;37.368;2022-07-29T15:19:03;99215.41;;;23.44;40.93
44148;BME280;29810;55.848;37.368;2022-07-29T15:22:04;99254.00;;;22.47;46.69
44148;BME280;29810;55.848;37.368;2022-07-29T15:25:06;99265.44;;;21.84;49.14
44148;BME280;29810;55.848;37.368;2022-07-29T15:28:10;99257.59;;;21.50;50.45
44148;BME280;29810;55.848;37.368;2022-07-29T15:31:12;99281.53;;;21.16;51.79
44148;BME280;29810;55.848;37.368;2022-07-29T15:34:14;99272.66;;;20.83;52.97
44148;BME280;29810;55.848;37.368;2022-07-29T15:37:16;99279.47;;;20.52;53.72
44148;BME280;29810;55.848;37.368;2022-07-29T15:40:18;99273.66;;;20.35;53.60
44148;BME280;29810;55.848;37.368;2022-07-29T15:43:19;99272.81;;;20.46;53.64
44148;BME280;29810;55.848;37.368;2022-07-29T15:46:21;99280.78;;;20.35;53.76
44148;BME280;29810;55.848;37.368;2022-07-29T15:49:41;99280.16;;;20.54;53.47
44148;BME280;29810;55.848;37.368;2022-07-29T15:52:43;99287.03;;;20.57;53.61
44148;BME280;29810;55.848;37.368;2022-07-29T15:55:44;99276.44;;;20.34;54.16
44148;BME280;29810;55.848;37.368;2022-07-29T15:58:46;99280.66;;;20.37;53.99
44148;BME280;29810;55.848;37.368;2022-07-29T16:01:48;99277.63;;;20.30;54.97
44148;BME280;29810;55.848;37.368;2022-07-29T16:04:50;99273.12;;;20.08;55.99
44148;BME280;29810;55.848;37.368;2022-07-29T16:07:51;99280.19;;;20.07;55.96
44148;BME280;29810;55.848;37.368;2022-07-29T16:10:53;99281.88;;;20.08;56.70
44148;BME280;29810;55.848;37.368;2022-07-29T16:13:54;99279.03;;;20.23;56.22
44148;BME280;29810;55.848;37.368;2022-07-29T16:16:56;99279.03;;;20.23;56.34
44148;BME280;29810;55.848;37.368;2022-07-29T16:19:58;99274.41;;;20.02;57.09
44148;BME280;29810;55.848;37.368;2022-07-29T16:23:00;99287.63;;;19.91;57.41
44148;BME280;29810;55.848;37.368;2022-07-29T16:26:01;99292.53;;;19.95;57.63